createdAt,value
2023-04-27T00:02:16.892Z,6.74
2023-04-27T00:04:44.690Z,6.70
2023-04-27T00:07:11.923Z,6.63
2023-04-27T00:09:38.625Z,6.61
2023-04-27T00:12:06.368Z,6.66
2023-04-27T00:14:33.398Z,6.64
2023-04-27T00:17:00.057Z,6.57
2023-04-27T00:19:27.099Z,6.49
2023-04-27T00:21:53.986Z,6.49
2023-04-27T00:24:20.660Z,6.49
2023-04-27T00:26:47.621Z,6.59
2023-04-27T00:29:14.856Z,6.55
2023-04-27T00:31:42.181Z,6.65
2023-04-27T00:34:09.182Z,6.64
2023-04-27T00:36:36.098Z,6.61
2023-04-27T00:39:04.598Z,6.64
2023-04-27T00:41:31.708Z,6.45
2023-04-27T00:43:58.565Z,6.46
2023-04-27T00:46:25.419Z,6.48
2023-04-27T00:48:52.253Z,6.48
2023-04-27T00:51:18.909Z,6.37
2023-04-27T00:53:45.697Z,6.43
2023-04-27T00:56:13.483Z,6.51
2023-04-27T00:58:40.129Z,6.51
2023-04-27T01:01:06.838Z,6.46
2023-04-27T01:03:33.951Z,6.50
2023-04-27T01:06:01.884Z,6.43
2023-04-27T01:08:29.666Z,6.43
2023-04-27T01:10:56.583Z,6.37
2023-04-27T01:13:23.337Z,6.58
2023-04-27T01:15:50.344Z,6.49
2023-04-27T01:18:17.265Z,6.47
2023-04-27T01:20:45.160Z,6.45
2023-04-27T01:23:17.371Z,6.43
2023-04-27T01:25:45.522Z,6.46
2023-04-27T01:28:12.929Z,6.42
2023-04-27T01:30:39.671Z,6.46
2023-04-27T01:33:06.706Z,6.44
2023-04-27T01:35:33.369Z,6.32
2023-04-27T01:38:00.278Z,6.51
2023-04-27T01:40:27.354Z,6.52
2023-04-27T01:42:54.520Z,6.46
2023-04-27T01:45:21.420Z,6.44
2023-04-27T01:47:50.565Z,6.35
2023-04-27T01:50:17.379Z,6.35
2023-04-27T01:52:44.066Z,6.38
2023-04-27T01:55:11.448Z,6.33
2023-04-27T01:57:38.062Z,6.29
2023-04-27T02:00:06.575Z,6.35
2023-04-27T02:02:33.665Z,6.33
2023-04-27T02:05:00.784Z,6.39
2023-04-27T02:07:27.658Z,6.32
2023-04-27T02:09:54.766Z,6.26
2023-04-27T02:12:21.677Z,6.20
2023-04-27T02:14:48.380Z,6.27
2023-04-27T02:17:15.110Z,6.27
2023-04-27T02:19:41.724Z,6.14
2023-04-27T02:22:08.564Z,6.12
2023-04-27T02:24:35.898Z,6.20
2023-04-27T02:27:04.469Z,6.08
2023-04-27T02:29:32.379Z,5.90
2023-04-27T02:31:59.391Z,6.12
2023-04-27T02:34:26.058Z,6.08
2023-04-27T02:36:52.683Z,6.12
2023-04-27T02:39:19.704Z,6.03
2023-04-27T02:41:47.050Z,5.94
2023-04-27T02:44:13.696Z,5.86
2023-04-27T02:46:40.562Z,6.05
2023-04-27T02:49:07.323Z,6.00
2023-04-27T02:51:34.208Z,5.84
2023-04-27T02:54:01.338Z,5.91
2023-04-27T02:56:28.056Z,5.90
2023-04-27T02:58:55.178Z,5.89
2023-04-27T03:01:22.846Z,5.95
2023-04-27T03:03:50.175Z,6.13
2023-04-27T03:06:17.145Z,5.98
2023-04-27T03:08:43.867Z,5.98
2023-04-27T03:11:10.544Z,5.94
2023-04-27T03:13:42.070Z,5.89
2023-04-27T03:16:11.981Z,5.83
2023-04-27T03:18:39.050Z,5.86
2023-04-27T03:21:10.278Z,5.88
2023-04-27T03:23:37.432Z,5.94
2023-04-27T03:26:13.796Z,5.76
2023-04-27T03:28:41.177Z,5.95
2023-04-27T03:31:09.634Z,6.09
2023-04-27T03:33:36.814Z,5.90
2023-04-27T03:36:04.576Z,5.86
2023-04-27T03:38:31.515Z,5.81
2023-04-27T03:40:58.220Z,6.02
2023-04-27T03:43:25.797Z,6.01
2023-04-27T03:45:52.916Z,6.00
2023-04-27T03:48:19.989Z,5.89
2023-04-27T03:50:46.896Z,5.76
2023-04-27T03:53:14.295Z,5.68
2023-04-27T03:55:42.421Z,5.70
2023-04-27T03:58:12.763Z,5.84
2023-04-27T04:00:40.225Z,5.87
2023-04-27T04:03:08.013Z,5.79
2023-04-27T04:05:35.213Z,5.80
2023-04-27T04:08:01.913Z,5.87
2023-04-27T04:10:29.057Z,5.83
2023-04-27T04:12:55.679Z,5.95
2023-04-27T04:15:22.317Z,5.88
2023-04-27T04:17:49.762Z,5.85
2023-04-27T04:20:17.091Z,5.85
2023-04-27T04:22:44.275Z,5.82
2023-04-27T04:25:10.993Z,5.78
2023-04-27T04:27:38.188Z,5.72
2023-04-27T04:30:06.782Z,5.74
2023-04-27T04:32:34.193Z,5.72
2023-04-27T04:35:01.622Z,5.71
2023-04-27T04:37:28.722Z,5.87
2023-04-27T04:39:55.377Z,6.04
2023-04-27T04:42:22.295Z,6.03
2023-04-27T04:44:48.940Z,6.05
2023-04-27T04:47:16.015Z,5.94
2023-04-27T04:49:43.053Z,5.99
2023-04-27T04:52:10.095Z,5.88
2023-04-27T04:54:36.674Z,5.89
2023-04-27T04:57:03.736Z,6.00
2023-04-27T04:59:34.799Z,5.85
2023-04-27T05:02:01.740Z,6.03
2023-04-27T05:04:28.783Z,6.05
2023-04-27T05:06:55.519Z,6.23
2023-04-27T05:09:22.520Z,6.17
2023-04-27T05:11:49.155Z,6.16
2023-04-27T05:14:16.129Z,6.45
2023-04-27T05:16:42.918Z,6.52
2023-04-27T05:19:09.978Z,6.40
2023-04-27T05:21:36.772Z,6.44
2023-04-27T05:24:04.133Z,6.46
2023-04-27T05:26:30.819Z,6.75
2023-04-27T05:28:57.915Z,6.64
2023-04-27T05:31:24.602Z,6.80
2023-04-27T05:33:51.668Z,6.90
2023-04-27T05:36:18.374Z,6.89
2023-04-27T05:38:44.936Z,7.01
2023-04-27T05:41:11.905Z,7.04
2023-04-27T05:43:38.920Z,7.18
2023-04-27T05:46:05.776Z,7.34
2023-04-27T05:48:33.150Z,7.40
2023-04-27T05:51:03.861Z,7.36
2023-04-27T05:53:32.463Z,7.47
2023-04-27T05:56:01.103Z,7.51
2023-04-27T05:58:28.366Z,7.87
2023-04-27T06:00:55.054Z,7.87
2023-04-27T06:03:22.029Z,7.80
2023-04-27T06:05:58.723Z,8.06
2023-04-27T06:08:25.776Z,7.90
2023-04-27T06:10:52.554Z,7.82
2023-04-27T06:13:20.153Z,8.09
2023-04-27T06:15:46.856Z,7.95
2023-04-27T06:18:13.726Z,8.10
2023-04-27T06:20:40.626Z,8.52
2023-04-27T06:23:07.277Z,8.58
2023-04-27T06:25:35.055Z,8.54
2023-04-27T06:28:01.800Z,8.39
2023-04-27T06:30:28.510Z,8.20
2023-04-27T06:32:55.889Z,8.40
2023-04-27T06:35:22.895Z,8.72
2023-04-27T06:37:49.512Z,8.87
2023-04-27T06:40:16.233Z,8.84
2023-04-27T06:42:42.976Z,8.57
2023-04-27T06:45:09.918Z,8.62
2023-04-27T06:47:36.930Z,8.41
2023-04-27T06:50:04.241Z,8.88
2023-04-27T06:52:33.273Z,9.15
2023-04-27T06:54:59.950Z,9.27
2023-04-27T06:57:26.893Z,9.41
2023-04-27T06:59:53.536Z,9.42
2023-04-27T07:02:20.388Z,9.34
2023-04-27T07:04:47.849Z,9.31
2023-04-27T07:07:14.535Z,9.35
2023-04-27T07:09:41.123Z,9.27
2023-04-27T07:12:07.979Z,9.43
2023-04-27T07:14:34.674Z,9.61
2023-04-27T07:17:01.525Z,9.66
2023-04-27T07:19:28.476Z,10.21
2023-04-27T07:21:55.065Z,10.00
2023-04-27T07:24:21.823Z,9.77
2023-04-27T07:26:48.500Z,9.46
2023-04-27T07:29:26.509Z,9.17
2023-04-27T07:31:55.930Z,9.08
2023-04-27T07:34:23.120Z,9.08
2023-04-27T07:36:50.239Z,9.62
2023-04-27T07:39:16.831Z,10.02
2023-04-27T07:41:43.642Z,10.57
2023-04-27T07:44:10.300Z,10.58
2023-04-27T07:46:38.535Z,9.69
2023-04-27T07:49:05.773Z,10.36
2023-04-27T07:51:34.616Z,9.60
2023-04-27T07:54:02.568Z,9.60
2023-04-27T07:56:29.222Z,10.52
2023-04-27T07:58:56.099Z,10.51
2023-04-27T08:01:22.859Z,10.29
2023-04-27T08:03:49.614Z,10.04
2023-04-27T08:06:18.916Z,10.10
2023-04-27T08:08:45.754Z,9.79
2023-04-27T08:11:12.599Z,9.99
2023-04-27T08:13:39.764Z,9.99
2023-04-27T08:16:07.191Z,9.89
2023-04-27T08:18:34.587Z,9.48
2023-04-27T08:21:01.311Z,10.07
2023-04-27T08:23:28.496Z,10.05
2023-04-27T08:25:55.177Z,10.04
2023-04-27T08:28:23.518Z,9.85
2023-04-27T08:30:50.150Z,9.46
2023-04-27T08:33:17.006Z,8.93
2023-04-27T08:35:43.685Z,8.70
2023-04-27T08:38:10.284Z,8.71
2023-04-27T08:40:41.773Z,8.72
2023-04-27T08:43:08.457Z,8.65
2023-04-27T08:45:35.070Z,8.83
2023-04-27T08:48:01.685Z,8.79
2023-04-27T08:50:28.663Z,8.78
2023-04-27T08:52:55.316Z,8.76
2023-04-27T08:55:22.118Z,8.72
2023-04-27T08:57:58.602Z,8.79
2023-04-27T09:00:26.284Z,8.74
2023-04-27T09:02:53.209Z,8.64
2023-04-27T09:05:22.092Z,8.79
2023-04-27T09:08:02.684Z,8.83
2023-04-27T09:10:30.057Z,9.00
2023-04-27T09:13:01.175Z,10.09
2023-04-27T09:15:28.858Z,10.35
2023-04-27T09:17:57.009Z,11.25
2023-04-27T09:20:24.324Z,11.44
2023-04-27T09:22:58.344Z,11.06
2023-04-27T09:25:30.273Z,11.06
2023-04-27T09:27:58.481Z,10.48
2023-04-27T09:30:26.297Z,10.12
2023-04-27T09:32:58.080Z,9.93
2023-04-27T09:35:30.399Z,9.64
2023-04-27T09:37:58.158Z,9.44
2023-04-27T09:40:28.208Z,9.27
2023-04-27T09:42:59.405Z,9.05
2023-04-27T09:45:26.502Z,8.78
2023-04-27T09:47:53.615Z,8.77
2023-04-27T09:50:21.828Z,9.05
2023-04-27T09:52:49.021Z,9.11
2023-04-27T09:55:19.971Z,9.36
2023-04-27T09:58:19.004Z,9.37
2023-04-27T10:00:58.234Z,9.30
2023-04-27T10:03:33.390Z,9.48
2023-04-27T10:06:40.529Z,9.54
2023-04-27T10:09:07.829Z,9.48
2023-04-27T10:11:40.820Z,9.29
2023-04-27T10:14:11.077Z,9.50
2023-04-27T10:17:11.767Z,9.17
2023-04-27T10:19:38.486Z,9.16
2023-04-27T10:22:08.256Z,9.68
2023-04-27T10:24:40.295Z,10.47
2023-04-27T10:27:09.627Z,10.89
2023-04-27T10:29:42.299Z,11.31
2023-04-27T10:32:14.742Z,12.25
2023-04-27T10:34:45.408Z,11.63
2023-04-27T10:37:12.623Z,12.52
2023-04-27T10:39:48.489Z,11.96
2023-04-27T10:42:27.433Z,12.75
2023-04-27T10:44:57.640Z,12.82
2023-04-27T10:47:24.771Z,12.83
2023-04-27T10:49:54.620Z,12.51
2023-04-27T10:52:21.855Z,11.96
2023-04-27T10:54:48.715Z,11.54
2023-04-27T10:57:16.461Z,11.27
2023-04-27T10:59:55.672Z,10.81
2023-04-27T11:02:27.463Z,10.50
2023-04-27T11:04:56.558Z,10.51
2023-04-27T11:07:27.860Z,11.82
2023-04-27T11:09:55.901Z,12.68
2023-04-27T11:12:22.673Z,12.78
2023-04-27T11:14:49.343Z,12.65
2023-04-27T11:17:16.159Z,12.02
2023-04-27T11:19:47.820Z,12.27
2023-04-27T11:22:17.098Z,12.14
2023-04-27T11:24:48.919Z,11.73
2023-04-27T11:27:16.491Z,11.90
2023-04-27T11:29:43.431Z,11.71
2023-04-27T11:32:20.138Z,11.22
2023-04-27T11:34:53.386Z,11.17
2023-04-27T11:37:25.754Z,11.26
2023-04-27T11:39:57.566Z,11.33
2023-04-27T11:42:26.308Z,11.48
2023-04-27T11:45:01.358Z,11.46
2023-04-27T11:47:30.706Z,11.62
2023-04-27T11:49:59.649Z,11.50
2023-04-27T11:52:30.451Z,11.52
2023-04-27T11:54:57.685Z,11.59
2023-04-27T11:57:34.519Z,11.95
2023-04-27T12:00:10.689Z,12.31
2023-04-27T12:02:37.893Z,12.53
2023-04-27T12:05:06.220Z,13.08
2023-04-27T12:07:33.520Z,13.40
2023-04-27T12:10:01.110Z,13.63
2023-04-27T12:12:27.947Z,14.40
2023-04-27T12:14:54.629Z,14.35
2023-04-27T12:17:21.342Z,13.52
2023-04-27T12:19:48.070Z,13.24
2023-04-27T12:22:15.498Z,13.05
2023-04-27T12:24:42.120Z,14.16
2023-04-27T12:27:08.790Z,13.69
2023-04-27T12:29:35.595Z,12.90
2023-04-27T12:32:02.357Z,13.53
2023-04-27T12:34:28.955Z,13.11
2023-04-27T12:36:56.050Z,12.84
2023-04-27T12:39:26.829Z,12.60
2023-04-27T12:41:54.111Z,12.40
2023-04-27T12:44:21.373Z,12.23
2023-04-27T12:46:48.459Z,11.64
2023-04-27T12:49:15.934Z,11.91
2023-04-27T12:51:42.914Z,12.04
2023-04-27T12:54:11.286Z,12.28
2023-04-27T12:56:38.024Z,12.56
2023-04-27T12:59:06.268Z,12.90
2023-04-27T13:01:33.309Z,13.15
2023-04-27T13:04:02.098Z,13.56
2023-04-27T13:06:32.103Z,13.77
2023-04-27T13:08:59.446Z,13.47
2023-04-27T13:11:26.564Z,13.68
2023-04-27T13:13:53.278Z,12.79
2023-04-27T13:16:21.803Z,12.63
2023-04-27T13:18:50.557Z,12.50
2023-04-27T13:21:17.601Z,12.68
2023-04-27T13:23:44.296Z,12.12
2023-04-27T13:26:11.538Z,12.26
2023-04-27T13:28:38.180Z,12.57
2023-04-27T13:31:05.615Z,12.39
2023-04-27T13:33:33.554Z,12.11
2023-04-27T13:36:02.420Z,12.62
2023-04-27T13:38:29.075Z,13.00
2023-04-27T13:40:55.859Z,12.80
2023-04-27T13:43:22.481Z,13.41
2023-04-27T13:45:50.925Z,13.77
2023-04-27T13:48:17.575Z,14.09
2023-04-27T13:50:44.259Z,13.91
2023-04-27T13:53:11.944Z,13.28
2023-04-27T13:55:38.674Z,13.68
2023-04-27T13:58:05.261Z,13.73
2023-04-27T14:00:34.642Z,14.34
2023-04-27T14:03:04.274Z,13.76
2023-04-27T14:05:32.022Z,13.36
2023-04-27T14:07:58.616Z,13.54
2023-04-27T14:10:25.218Z,13.05
2023-04-27T14:12:51.810Z,13.26
2023-04-27T14:15:18.400Z,13.01
2023-04-27T14:17:45.056Z,12.71
2023-04-27T14:20:11.838Z,12.93
2023-04-27T14:22:38.672Z,12.90
2023-04-27T14:25:05.854Z,13.23
2023-04-27T14:27:32.472Z,13.48
2023-04-27T14:29:59.286Z,13.18
2023-04-27T14:32:26.423Z,12.26
2023-04-27T14:34:53.139Z,12.29
2023-04-27T14:37:19.741Z,12.04
2023-04-27T14:39:46.614Z,12.14
2023-04-27T14:42:13.304Z,11.92
2023-04-27T14:44:39.917Z,11.67
2023-04-27T14:47:06.786Z,11.47
2023-04-27T14:49:33.582Z,11.64
2023-04-27T14:52:04.052Z,11.57
2023-04-27T14:54:30.763Z,11.41
2023-04-27T14:56:58.978Z,11.41
2023-04-27T14:59:26.311Z,11.25
2023-04-27T15:01:53.098Z,11.28
2023-04-27T15:04:20.105Z,11.33
2023-04-27T15:06:47.038Z,11.28
2023-04-27T15:09:13.963Z,11.30
2023-04-27T15:11:41.411Z,11.73
2023-04-27T15:14:08.686Z,12.01
2023-04-27T15:16:35.438Z,12.34
2023-04-27T15:19:02.177Z,12.46
2023-04-27T15:21:30.365Z,12.61
2023-04-27T15:23:57.190Z,12.85
2023-04-27T15:26:23.893Z,13.07
2023-04-27T15:28:50.796Z,13.03
2023-04-27T15:31:17.466Z,12.91
2023-04-27T15:33:44.125Z,12.97
2023-04-27T15:36:11.108Z,13.36
2023-04-27T15:38:37.832Z,13.08
2023-04-27T15:41:04.443Z,13.49
2023-04-27T15:43:31.231Z,13.90
2023-04-27T15:45:59.047Z,13.56
2023-04-27T15:48:25.739Z,13.66
2023-04-27T15:50:52.373Z,13.85
2023-04-27T15:53:18.924Z,13.50
2023-04-27T15:55:54.784Z,13.68
2023-04-27T15:58:22.286Z,14.30
2023-04-27T16:00:56.523Z,14.50
2023-04-27T16:03:25.345Z,14.48
2023-04-27T16:05:52.819Z,14.60
2023-04-27T16:08:30.718Z,14.87
2023-04-27T16:10:57.377Z,15.31
2023-04-27T16:13:24.912Z,14.88
2023-04-27T16:16:03.418Z,14.71
2023-04-27T16:18:30.051Z,14.77
2023-04-27T16:20:56.612Z,14.70
2023-04-27T16:23:24.604Z,14.53
2023-04-27T16:25:51.529Z,13.97
2023-04-27T16:28:27.137Z,14.75
2023-04-27T16:31:20.354Z,14.20
2023-04-27T16:33:52.954Z,14.45
2023-04-27T16:36:22.883Z,14.08
2023-04-27T16:38:58.859Z,13.23
2023-04-27T16:41:28.356Z,13.27
2023-04-27T16:43:58.889Z,12.91
2023-04-27T16:46:28.078Z,12.32
2023-04-27T16:49:00.698Z,11.85
2023-04-27T16:51:36.867Z,11.68
2023-04-27T16:54:04.112Z,11.82
2023-04-27T16:56:33.932Z,11.51
2023-04-27T16:59:05.494Z,11.20
2023-04-27T17:01:36.764Z,11.10
2023-04-27T17:04:03.871Z,11.05
2023-04-27T17:06:31.579Z,10.78
2023-04-27T17:09:04.210Z,10.75
2023-04-27T17:11:31.916Z,10.54
2023-04-27T17:14:11.700Z,10.69
2023-04-27T17:16:44.074Z,10.36
2023-04-27T17:19:12.258Z,10.30
2023-04-27T17:21:39.357Z,10.14
2023-04-27T17:24:06.579Z,10.07
2023-04-27T17:26:50.341Z,10.38
2023-04-27T17:29:17.352Z,10.29
2023-04-27T17:34:37.797Z,10.04
2023-04-27T17:37:04.676Z,10.18
2023-04-27T17:42:16.244Z,10.04
2023-04-27T17:44:42.979Z,9.97
2023-04-27T17:47:10.223Z,9.71
2023-04-27T17:49:42.754Z,9.49
2023-04-27T17:52:09.957Z,9.38
2023-04-27T17:54:36.716Z,9.22
2023-04-27T17:57:04.076Z,9.10
2023-04-27T17:59:34.513Z,8.92
2023-04-27T18:02:01.394Z,8.77
2023-04-27T18:04:28.436Z,8.66
2023-04-27T18:06:56.235Z,8.47
2023-04-27T18:09:33.218Z,8.36
2023-04-27T18:12:00.344Z,8.17
2023-04-27T18:14:27.245Z,8.08
2023-04-27T18:16:54.860Z,7.91
2023-04-27T18:19:25.416Z,7.89
2023-04-27T18:21:52.404Z,7.70
2023-04-27T18:24:23.024Z,7.53
2023-04-27T18:26:59.004Z,7.44
2023-04-27T18:29:34.850Z,7.29
2023-04-27T18:32:38.749Z,7.18
2023-04-27T18:35:16.396Z,7.08
2023-04-27T18:37:48.276Z,7.01
2023-04-27T18:40:19.074Z,6.89
2023-04-27T18:42:50.817Z,6.79
2023-04-27T18:45:17.530Z,6.71
2023-04-27T18:47:47.610Z,6.59
2023-04-27T18:50:26.274Z,6.51
2023-04-27T18:52:53.210Z,6.44
2023-04-27T18:55:20.294Z,6.33
2023-04-27T18:57:47.390Z,6.28
2023-04-27T19:00:14.570Z,6.23
2023-04-27T19:02:41.545Z,6.14
2023-04-27T19:05:28.772Z,6.04
2023-04-27T19:07:55.981Z,5.98
2023-04-27T19:10:22.707Z,5.89
2023-04-27T19:12:49.946Z,5.80
2023-04-27T19:15:16.880Z,5.76
2023-04-27T19:17:48.718Z,5.63
2023-04-27T19:20:20.665Z,5.63
2023-04-27T19:22:47.841Z,5.58
2023-04-27T19:25:14.608Z,5.54
2023-04-27T19:27:48.808Z,5.38
2023-04-27T19:30:16.370Z,5.43
2023-04-27T19:32:43.740Z,5.37
2023-04-27T19:35:12.607Z,5.33
2023-04-27T19:37:39.259Z,5.28
2023-04-27T19:40:08.554Z,5.22
2023-04-27T19:42:49.297Z,5.18
2023-04-27T19:45:18.056Z,5.17
2023-04-27T19:47:45.090Z,5.10
2023-04-27T19:50:12.278Z,5.05
2023-04-27T19:52:39.019Z,5.00
2023-04-27T19:55:06.021Z,4.84
2023-04-27T19:57:33.217Z,4.89
2023-04-27T20:00:05.359Z,4.86
2023-04-27T20:02:32.191Z,4.84
2023-04-27T20:04:59.499Z,4.73
2023-04-27T20:07:26.333Z,4.69
2023-04-27T20:09:53.588Z,4.64
2023-04-27T20:17:37.101Z,4.60
2023-04-27T20:20:06.666Z,4.55
2023-04-27T20:22:33.340Z,4.51
2023-04-27T20:25:00.259Z,4.46
2023-04-27T20:27:29.853Z,4.40
2023-04-27T20:30:02.362Z,4.36
2023-04-27T20:32:31.683Z,4.33
2023-04-27T20:35:02.689Z,4.35
2023-04-27T20:37:29.738Z,4.40
2023-04-27T20:40:01.257Z,4.40
2023-04-27T20:42:29.750Z,4.36
2023-04-27T20:44:56.702Z,4.25
2023-04-27T20:47:23.518Z,4.20
2023-04-27T20:49:50.330Z,4.13
2023-04-27T20:52:17.180Z,4.07
2023-04-27T20:55:00.614Z,4.03
2023-04-27T20:57:27.483Z,4.01
2023-04-27T20:59:55.762Z,3.99
2023-04-27T21:02:22.580Z,3.94
2023-04-27T21:04:49.680Z,3.91
2023-04-27T21:07:31.815Z,3.77
2023-04-27T21:10:07.330Z,3.83
2023-04-27T21:12:34.163Z,3.86
2023-04-27T21:15:06.407Z,3.82
2023-04-27T21:17:33.126Z,3.72
2023-04-27T21:19:59.949Z,3.75
2023-04-27T21:22:26.709Z,3.75
2023-04-27T21:24:58.325Z,3.77
2023-04-27T21:27:25.278Z,3.72
2023-04-27T21:29:59.832Z,3.74
2023-04-27T21:32:47.534Z,3.67
2023-04-27T21:35:20.530Z,3.64
2023-04-27T21:37:47.449Z,3.66
2023-04-27T21:40:14.485Z,3.65
2023-04-27T21:42:41.134Z,3.57
2023-04-27T21:45:08.551Z,3.66
2023-04-27T21:47:35.513Z,3.63
2023-04-27T21:50:19.808Z,3.60
2023-04-27T21:52:46.764Z,3.53
2023-04-27T21:55:13.538Z,3.44
2023-04-27T21:57:40.465Z,3.38
2023-04-27T22:00:13.822Z,3.33
2023-04-27T22:02:42.841Z,3.32
2023-04-27T22:05:10.174Z,3.32
2023-04-27T22:07:37.743Z,3.35
2023-04-27T22:10:06.092Z,3.32
2023-04-27T22:12:33.526Z,3.30
2023-04-27T22:15:00.583Z,3.30
2023-04-27T22:17:27.884Z,3.30
2023-04-27T22:19:54.989Z,3.23
2023-04-27T22:22:21.805Z,3.10
2023-04-27T22:24:48.840Z,3.25
2023-04-27T22:27:16.103Z,3.26
2023-04-27T22:29:43.090Z,3.18
2023-04-27T22:32:10.214Z,3.18
2023-04-27T22:34:37.485Z,3.19
2023-04-27T22:37:05.046Z,3.12
2023-04-27T22:39:32.640Z,3.11
2023-04-27T22:41:59.804Z,3.15
2023-04-27T22:44:26.811Z,3.15
2023-04-27T22:46:54.501Z,3.10
2023-04-27T22:49:21.278Z,3.18
2023-04-27T22:51:48.595Z,3.16
2023-04-27T22:54:15.644Z,3.10
2023-04-27T22:56:42.584Z,3.05
2023-04-27T22:59:09.344Z,2.99
2023-04-27T23:01:36.379Z,2.97
2023-04-27T23:04:03.239Z,2.83
2023-04-27T23:06:31.116Z,2.92
2023-04-27T23:08:58.367Z,2.91
2023-04-27T23:11:27.102Z,2.91
2023-04-27T23:13:54.919Z,2.93
2023-04-27T23:16:23.620Z,2.88
2023-04-27T23:18:50.927Z,2.85
2023-04-27T23:21:18.139Z,2.74
2023-04-27T23:23:44.858Z,2.75
2023-04-27T23:26:13.267Z,2.80
2023-04-27T23:28:40.389Z,2.78
2023-04-27T23:31:07.310Z,2.78
2023-04-27T23:33:34.334Z,2.78
2023-04-27T23:36:01.632Z,2.68
2023-04-27T23:38:28.542Z,2.65
2023-04-27T23:40:55.303Z,2.65
2023-04-27T23:43:22.930Z,2.71
2023-04-27T23:45:51.640Z,2.74
2023-04-27T23:48:19.803Z,2.71
2023-04-27T23:50:46.874Z,2.62
2023-04-27T23:53:13.876Z,2.59
2023-04-27T23:55:40.875Z,2.56
2023-04-27T23:58:07.605Z,2.53
